Time;durP1;ratioP1;P1;durP2;ratioP2;P2;SDS_P1;SDS_P2;PMS_P1;PMS_P2;Temp;Humidity;BMP_temperature;BMP_pressure;BME280_temperature;BME280_humidity;BME280_pressure;Samples;Min_cycle;Max_cycle;Signal;HPM_P1;HPM_P2
2022/10/26 00:01:22;;;;;;;17.37;13.03;;;;;;;11.34;89.02;100670.10;3333808;83;21023;-75
2022/10/26 00:06:15;;;;;;;15.80;11.25;;;;;;;11.34;89.26;100670.10;3365304;82;22586;-75
2022/10/26 00:11:13;;;;;;;15.63;12.55;;;;;;;11.42;89.63;100677.56;3356921;83;20975;-75
2022/10/26 00:16:22;;;;;;;16.75;13.28;;;;;;;11.50;89.78;100676.38;3325110;83;20969;-75
2022/10/26 00:21:31;;;;;;;;;;;;;;;;;;;;;
2022/10/26 00:26:21;;;;;;;21.57;14.80;;;;;;;11.63;90.01;100669.59;3354806;83;21694;-76
2022/10/26 00:36:15;;;;;;;16.65;14.85;;;;;;;11.71;90.20;100688.77;3342275;83;21595;-75
2022/10/26 00:41:24;;;;;;;18.42;15.32;;;;;;;11.79;90.89;100692.34;3347626;82;21244;-75
2022/10/26 00:46:22;;;;;;;15.93;13.62;;;;;;;11.85;90.87;100677.21;3367980;82;20906;-75
2022/10/26 00:51:31;;;;;;;16.67;14.68;;;;;;;11.88;90.76;100680.30;3386671;83;21103;-75
2022/10/26 00:56:30;;;;;;;18.20;14.60;;;;;;;11.89;90.65;100678.12;3373075;83;20947;-75
2022/10/26 01:01:23;;;;;;;17.92;13.68;;;;;;;11.92;90.80;100682.10;3362382;82;20977;-75
2022/10/26 01:06:23;;;;;;;20.57;14.07;;;;;;;11.95;90.83;100689.95;3374173;83;21861;-75
2022/10/26 01:11:13;;;;;;;16.93;15.23;;;;;;;11.96;90.82;100687.34;3363544;83;21494;-75
2022/10/26 01:16:18;;;;;;;15.03;13.05;;;;;;;11.98;90.77;100693.47;3338225;83;21606;-75
2022/10/26 01:21:36;;;;;;;15.63;12.63;;;;;;;12.01;90.90;100687.41;3223442;86;20948;-75
2022/10/26 01:27:16;;;;;;;18.00;12.18;;;;;;;12.02;90.88;100687.86;3244250;86;21039;-75
2022/10/26 01:32:13;;;;;;;14.40;12.30;;;;;;;12.01;90.94;100685.66;3353717;80;21259;-75
2022/10/26 01:37:10;;;;;;;15.58;12.60;;;;;;;12.02;90.96;100689.17;3391190;82;20947;-76
2022/10/26 01:42:03;;;;;;;14.20;12.83;;;;;;;12.03;91.12;100690.90;3438258;81;21300;-75
2022/10/26 01:46:58;;;;;;;16.75;11.57;;;;;;;12.04;91.26;100690.05;3449220;81;21664;-75
2022/10/26 01:51:49;;;;;;;16.48;12.63;;;;;;;12.06;91.18;100699.20;3461891;81;20927;-75
2022/10/26 01:56:46;;;;;;;16.30;13.00;;;;;;;12.05;91.26;100687.87;3429545;79;21006;-75
2022/10/26 02:02:06;;;;;;;14.13;11.83;;;;;;;12.06;91.22;100689.63;3440703;80;20960;-76
2022/10/26 02:07:09;;;;;;;13.30;11.93;;;;;;;12.08;91.40;100690.52;3514872;79;21167;-75
2022/10/26 02:12:07;;;;;;;16.90;12.98;;;;;;;12.09;91.42;100696.19;3479118;80;20959;-75
2022/10/26 02:17:19;;;;;;;19.12;13.85;;;;;;;12.11;91.50;100698.82;3536203;79;21007;-75
2022/10/26 02:22:34;;;;;;;14.43;13.05;;;;;;;12.12;91.48;100705.32;3462484;80;20974;-75
2022/10/26 02:27:34;;;;;;;17.60;14.13;;;;;;;12.12;91.53;100705.32;3493587;79;21047;-75
2022/10/26 02:32:29;;;;;;;17.45;15.60;;;;;;;12.11;91.48;100706.20;3495581;79;20975;-75
2022/10/26 02:37:23;;;;;;;16.75;14.78;;;;;;;12.06;91.26;100708.31;3490482;80;20967;-75
2022/10/26 02:42:17;;;;;;;15.50;13.95;;;;;;;11.94;90.99;100707.30;3409310;79;20974;-75
2022/10/26 02:47:09;;;;;;;16.20;14.40;;;;;;;11.90;91.26;100712.45;3451560;80;20952;-76
2022/10/26 02:52:05;;;;;;;24.25;19.67;;;;;;;11.88;91.25;100720.23;3466772;79;21034;-75
2022/10/26 02:57:11;;;;;;;22.37;19.57;;;;;;;11.88;91.51;100718.07;3475077;80;20987;-75
2022/10/26 03:02:04;;;;;;;21.82;19.00;;;;;;;11.93;91.87;100720.30;3506896;79;21098;-75
2022/10/26 03:06:58;;;;;;;25.97;21.55;;;;;;;11.97;91.96;100726.89;3492115;80;20956;-75
2022/10/26 03:11:49;;;;;;;27.85;21.68;;;;;;;12.01;92.02;100736.91;3470182;80;21489;-75
2022/10/26 03:16:40;;;;;;;29.15;23.47;;;;;;;12.04;92.04;100734.35;3477560;79;20999;-75
2022/10/26 03:21:31;;;;;;;25.35;22.45;;;;;;;12.07;92.03;100734.36;3454708;80;21012;-76
2022/10/26 03:26:22;;;;;;;24.10;21.57;;;;;;;12.09;91.97;100740.50;3474034;80;21038;-76
2022/10/26 03:31:16;;;;;;;24.80;20.55;;;;;;;12.10;92.01;100741.36;3469855;80;20974;-75
2022/10/26 03:36:10;;;;;;;27.30;24.07;;;;;;;12.11;91.94;100742.69;3485023;78;21505;-75
2022/10/26 03:41:06;;;;;;;30.12;21.52;;;;;;;12.12;91.88;100744.41;3478927;79;21473;-75
2022/10/26 03:45:56;;;;;;;26.27;20.88;;;;;;;12.12;91.87;100750.06;3491516;78;20963;-75
2022/10/26 03:50:50;;;;;;;27.93;22.10;;;;;;;12.13;91.79;100754.44;3478746;80;22096;-75
2022/10/26 03:55:45;;;;;;;22.35;19.48;;;;;;;12.14;91.73;100754.45;3426838;79;21063;-75
2022/10/26 04:00:36;;;;;;;23.60;19.25;;;;;;;12.12;91.67;100771.78;3425501;80;20951;-75
2022/10/26 04:05:29;;;;;;;27.87;18.73;;;;;;;12.13;91.60;100772.68;3445177;80;21030;-76
2022/10/26 04:10:24;;;;;;;25.45;21.27;;;;;;;12.12;91.58;100777.43;3478565;80;21464;-75
2022/10/26 04:15:16;;;;;;;29.20;21.80;;;;;;;12.11;91.35;100775.27;3439166;80;21940;-75
2022/10/26 04:20:09;;;;;;;27.30;21.37;;;;;;;12.10;91.30;100773.94;3423087;80;21011;-75
2022/10/26 04:25:00;;;;;;;28.45;21.23;;;;;;;12.10;91.23;100771.33;3408873;80;21067;-75
2022/10/26 04:30:07;;;;;;;;;;;;;;;;;;;;;
2022/10/26 04:34:54;;;;;;;27.67;20.95;;;;;;;12.07;90.92;100778.67;3491890;80;21066;-74
2022/10/26 04:39:46;;;;;;;25.75;21.20;;;;;;;12.06;90.98;100779.98;3432883;79;20971;-74
2022/10/26 04:44:41;;;;;;;27.98;21.77;;;;;;;12.07;90.94;100785.19;3424631;80;20918;-75
2022/10/26 04:50:03;;;;;;;32.03;22.52;;;;;;;12.05;90.62;100788.20;3499732;80;20983;-76
2022/10/26 05:00:20;;;;;;;28.20;22.70;;;;;;;12.02;90.55;100790.80;3404684;81;21066;-75
2022/10/26 05:05:18;;;;;;;35.30;25.00;;;;;;;11.99;90.37;100791.61;3376180;82;21033;-75
2022/10/26 05:10:20;;;;;;;35.05;24.70;;;;;;;11.99;90.47;100795.95;3360874;82;21021;-76
2022/10/26 05:20:30;;;;;;;31.50;24.82;;;;;;;12.00;90.47;100808.11;3115626;89;21399;-76
2022/10/26 05:25:31;;;;;;;30.60;25.50;;;;;;;11.99;90.46;100816.80;3070651;91;21074;-75
2022/10/26 05:30:24;;;;;;;36.33;24.45;;;;;;;11.98;90.38;100817.65;3039278;91;21797;-76
2022/10/26 05:35:24;;;;;;;30.15;23.30;;;;;;;11.98;90.40;100821.55;3040973;90;21621;-76
2022/10/26 05:46:14;;;;;;;27.13;22.45;;;;;;;11.98;90.27;100844.60;3117211;90;21545;-76
2022/10/26 05:51:24;;;;;;;;;;;;;;;;;;;;;
2022/10/26 05:57:51;;;;;;;25.55;22.60;;;;;;;11.95;90.10;100848.90;3191953;85;21367;-75
2022/10/26 06:02:44;;;;;;;;;;;;;;;;;;;;;
2022/10/26 06:07:42;;;;;;;29.15;21.60;;;;;;;11.98;90.14;100860.23;3206710;86;27545;-75
2022/10/26 06:12:43;;;;;;;31.27;22.90;;;;;;;11.99;90.05;100871.53;3216540;86;21687;-76
2022/10/26 06:18:10;;;;;;;28.80;22.00;;;;;;;11.95;89.80;100868.44;3199575;87;21103;-75
2022/10/26 06:23:09;;;;;;;30.25;22.32;;;;;;;11.92;89.94;100876.20;3217054;87;21163;-76
2022/10/26 06:29:02;;;;;;;32.53;22.75;;;;;;;11.90;89.86;100882.69;3378381;82;20983;-75
2022/10/26 06:40:23;;;;;;;24.10;19.35;;;;;;;11.96;89.86;100880.59;3217917;86;21596;-77
2022/10/26 06:45:18;;;;;;;29.30;20.23;;;;;;;12.05;89.71;100885.93;3173988;86;21119;-74
2022/10/26 06:50:21;;;;;;;29.12;20.37;;;;;;;12.13;89.32;100889.53;3167764;86;23780;-73
2022/10/26 06:55:14;;;;;;;25.45;17.65;;;;;;;12.19;88.94;100893.50;3236461;85;21044;-73
2022/10/26 07:00:24;;;;;;;23.42;16.52;;;;;;;12.26;88.79;100900.12;3197332;85;21027;-73
2022/10/26 07:05:15;;;;;;;20.85;16.93;;;;;;;12.33;88.41;100908.47;3166358;86;21013;-74
2022/10/26 07:10:07;;;;;;;19.57;14.93;;;;;;;12.32;88.15;100909.31;3380230;81;20976;-73
2022/10/26 07:14:59;;;;;;;16.97;15.15;;;;;;;12.37;88.03;100911.11;3400988;81;21117;-74
2022/10/26 07:19:51;;;;;;;18.80;15.80;;;;;;;12.43;87.43;100905.13;3350117;81;22262;-75
2022/10/26 07:24:42;;;;;;;17.32;13.43;;;;;;;12.50;87.23;100910.86;3371949;81;21013;-75
2022/10/26 07:29:34;;;;;;;14.20;12.75;;;;;;;12.61;86.99;100908.79;3416180;81;21522;-74
2022/10/26 07:34:25;;;;;;;16.42;13.05;;;;;;;12.79;86.43;100915.55;3504907;80;21066;-74
2022/10/26 07:39:26;;;;;;;14.78;11.68;;;;;;;12.94;86.17;100922.21;3403235;80;21043;-74
2022/10/26 07:44:20;;;;;;;19.42;12.18;;;;;;;13.08;85.76;100925.41;3445968;80;21033;-75
2022/10/26 07:49:59;;;;;;;14.23;12.13;;;;;;;13.35;85.12;100921.77;3416986;80;21035;-74
2022/10/26 07:54:59;;;;;;;16.32;12.25;;;;;;;13.48;84.10;100927.97;3431534;80;20948;-75
2022/10/26 07:59:53;;;;;;;17.30;11.15;;;;;;;13.61;84.04;100927.66;3453449;80;20951;-74
2022/10/26 08:04:46;;;;;;;17.12;13.43;;;;;;;13.97;83.17;100931.81;3414951;79;21384;-74
2022/10/26 08:09:45;;;;;;;14.25;11.25;;;;;;;13.89;82.83;100933.08;3470445;80;20996;-74
2022/10/26 08:14:49;;;;;;;15.72;13.40;;;;;;;13.88;83.00;100933.95;3419998;80;21568;-75
2022/10/26 08:25:28;;;;;;;16.52;12.18;;;;;;;14.00;82.66;100948.39;3433650;80;21030;-75
2022/10/26 08:36:49;;;;;;;16.95;12.33;;;;;;;13.94;82.05;100954.90;3283914;84;20932;-74
2022/10/26 08:47:27;;;;;;;;;;;;;;;13.87;81.73;100964.42;2910677;94;21082;-75
2022/10/26 08:52:27;;;;;;;15.00;11.22;;;;;;;13.65;81.91;100966.45;2934739;94;20729;-75
2022/10/26 08:57:35;;;;;;;14.73;10.53;;;;;;;13.57;81.79;100977.25;2950965;94;23254;-75
2022/10/26 09:02:32;;;;;;;16.57;11.83;;;;;;;13.55;82.02;100973.31;2942780;94;21007;-75
2022/10/26 09:07:54;;;;;;;12.00;10.63;;;;;;;13.64;81.99;100983.84;2962843;94;21135;-75
2022/10/26 09:13:03;;;;;;;15.28;10.88;;;;;;;13.84;82.36;100977.91;2977847;93;21062;-75
2022/10/26 09:18:20;;;;;;;12.00;9.48;;;;;;;14.11;81.87;100982.04;3152592;87;21090;-74
2022/10/26 09:23:39;;;;;;;;;;;;;;;14.18;81.47;100989.91;3269594;83;21066;-74
2022/10/26 09:28:35;;;;;;;16.85;12.90;;;;;;;14.08;81.99;100995.52;3226967;87;20156;-74
2022/10/26 09:33:34;;;;;;;14.80;12.55;;;;;;;14.14;82.01;100991.62;3166651;88;20986;-74
2022/10/26 09:38:52;;;;;;;18.50;12.95;;;;;;;14.25;81.60;100998.23;3302693;84;22249;-73
2022/10/26 09:43:57;;;;;;;15.68;13.10;;;;;;;14.31;81.50;101008.75;3299223;84;21533;-74
2022/10/26 09:49:01;;;;;;;18.37;13.32;;;;;;;14.40;81.20;101014.03;3310229;83;21029;-73
2022/10/26 09:54:01;;;;;;;13.68;11.68;;;;;;;14.53;80.78;101014.97;3302140;84;21037;-74
2022/10/26 09:59:02;;;;;;;14.93;11.93;;;;;;;14.90;80.50;101015.19;3354700;83;20948;-74
2022/10/26 10:04:21;;;;;;;14.23;12.37;;;;;;;14.83;79.93;101016.90;3349018;84;21069;-74
2022/10/26 10:09:20;;;;;;;21.05;12.23;;;;;;;14.60;80.58;101019.84;3423371;81;21011;-74
2022/10/26 10:14:19;;;;;;;13.70;10.65;;;;;;;14.62;80.72;101019.42;3424471;81;21664;-73
2022/10/26 10:19:15;;;;;;;10.20;8.38;;;;;;;14.67;80.46;101022.94;3449691;82;21033;-74
2022/10/26 10:24:30;;;;;;;10.90;8.58;;;;;;;14.86;79.45;101014.30;3377001;82;21122;-75
2022/10/26 10:29:28;;;;;;;10.70;7.60;;;;;;;15.16;79.24;101007.84;3442005;80;21081;-73
2022/10/26 10:34:21;;;;;;;11.10;8.80;;;;;;;15.42;78.45;101017.08;3436209;81;21448;-73
2022/10/26 10:39:36;;;;;;;10.32;8.55;;;;;;;15.35;78.37;101013.56;3410314;82;21708;-74
2022/10/26 10:44:30;;;;;;;12.10;8.10;;;;;;;15.35;78.81;101014.88;3412828;82;20959;-74
2022/10/26 10:49:27;;;;;;;7.87;7.05;;;;;;;15.53;78.12;101017.97;3410107;81;21496;-72
2022/10/26 10:54:35;;;;;;;10.18;8.50;;;;;;;15.52;77.81;101010.09;3377520;81;21030;-71
2022/10/26 10:59:45;;;;;;;11.30;8.50;;;;;;;15.42;76.17;101009.22;3383364;81;20959;-72
2022/10/26 11:04:58;;;;;;;10.25;8.08;;;;;;;15.41;77.74;101014.02;3405034;82;21436;-74
2022/10/26 11:09:53;;;;;;;10.68;7.75;;;;;;;15.27;77.82;101017.04;3270373;86;21253;-74
2022/10/26 11:14:51;;;;;;;9.73;8.45;;;;;;;15.08;77.77;101016.09;3270019;86;21536;-74
2022/10/26 11:20:02;;;;;;;13.25;8.80;;;;;;;14.99;78.13;101012.60;3271210;85;21635;-74
2022/10/26 11:25:07;;;;;;;13.95;9.75;;;;;;;14.87;78.31;101019.95;3245335;86;21269;-74
2022/10/26 11:30:20;;;;;;;11.93;9.30;;;;;;;15.06;78.14;101020.91;3246075;85;21513;-75
2022/10/26 11:35:32;;;;;;;10.80;9.38;;;;;;;15.00;78.26;101031.80;3212687;86;21606;-74
2022/10/26 11:41:01;;;;;;;11.80;9.98;;;;;;;15.05;77.90;101028.31;3233154;84;21132;-75
2022/10/26 11:46:22;;;;;;;11.60;9.80;;;;;;;15.02;77.68;101027.44;3329910;82;20962;-75
2022/10/26 11:51:22;;;;;;;16.10;10.98;;;;;;;15.00;77.97;101030.04;3394521;82;21071;-74
2022/10/26 11:57:00;;;;;;;;;;;;;;;;;;;;;
2022/10/26 12:01:51;;;;;;;14.78;10.95;;;;;;;14.97;78.02;101034.39;3392860;82;21029;-74
2022/10/26 12:06:45;;;;;;;14.45;10.32;;;;;;;14.96;77.86;101031.35;3428864;83;21054;-74
2022/10/26 12:12:03;;;;;;;16.45;10.03;;;;;;;14.97;77.99;101039.22;3370801;82;21523;-74
2022/10/26 12:17:23;;;;;;;14.55;10.10;;;;;;;14.94;78.30;101042.26;3412826;81;21066;-73
2022/10/26 12:22:39;;;;;;;13.48;9.60;;;;;;;14.84;78.28;101046.15;3403702;82;21878;-75
2022/10/26 12:27:45;;;;;;;12.45;9.88;;;;;;;14.77;78.28;101046.98;3251996;84;21034;-72
2022/10/26 12:32:49;;;;;;;10.65;9.50;;;;;;;14.67;78.23;101049.97;3258801;84;21128;-76
2022/10/26 12:38:20;;;;;;;;;;;;;;;;;;;;;
2022/10/26 12:43:37;;;;;;;;;;;;;;;;;;;;;
2022/10/26 12:48:46;;;;;;;14.10;9.50;;;;;;;14.58;77.94;101056.47;3140816;86;21122;-74
2022/10/26 12:53:39;;;;;;;12.25;9.28;;;;;;;14.57;78.28;101058.59;3136923;87;21093;-72
2022/10/26 12:59:33;;;;;;;9.98;8.50;;;;;;;14.54;78.36;101053.78;3154593;86;21033;-75
2022/10/26 13:04:58;;;;;;;12.68;10.05;;;;;;;14.54;78.04;101058.60;3163819;86;21608;-75
2022/10/26 13:10:07;;;;;;;19.50;12.82;;;;;;;14.46;78.31;101054.61;3153015;87;21082;-74
2022/10/26 13:15:08;;;;;;;17.07;12.35;;;;;;;14.44;78.48;101061.57;3173716;86;21049;-74
2022/10/26 13:20:04;;;;;;;17.55;12.98;;;;;;;14.41;78.75;101059.38;3238016;84;20978;-75
2022/10/26 13:25:02;;;;;;;14.10;10.40;;;;;;;14.34;78.73;101057.14;3334522;83;21458;-75
2022/10/26 13:30:11;;;;;;;12.43;10.75;;;;;;;14.25;79.07;101061.00;3311423;84;20927;-75
2022/10/26 13:35:04;;;;;;;13.93;10.55;;;;;;;14.20;79.26;101061.39;3325744;83;21395;-74
2022/10/26 13:39:58;;;;;;;16.20;12.65;;;;;;;14.20;79.59;101057.47;3238000;84;21246;-75
2022/10/26 13:45:05;;;;;;;16.65;11.55;;;;;;;14.17;79.17;101067.93;3273127;83;20994;-75
2022/10/26 13:50:06;;;;;;;;;;;;;;;14.17;79.48;101066.63;3329820;83;20996;-75
2022/10/26 13:55:02;;;;;;;14.53;10.48;;;;;;;14.17;79.52;101066.18;3336312;84;20131;-75
2022/10/26 13:59:57;;;;;;;14.97;9.93;;;;;;;14.17;79.53;101068.80;3332082;84;21609;-75
2022/10/26 14:05:02;;;;;;;20.30;12.85;;;;;;;14.16;79.49;101067.47;3327185;83;21983;-76
2022/10/26 14:09:57;;;;;;;13.22;11.03;;;;;;;14.15;79.28;101068.32;3311701;83;20970;-75
2022/10/26 14:14:49;;;;;;;12.82;9.03;;;;;;;14.13;79.43;101067.44;3341649;83;21007;-75
2022/10/26 14:19:40;;;;;;;12.53;8.90;;;;;;;14.13;79.63;101064.42;3305984;83;21162;-74
2022/10/26 14:24:39;;;;;;;11.43;9.03;;;;;;;14.08;79.29;101067.42;3285654;83;21650;-74
2022/10/26 14:29:32;;;;;;;14.00;9.25;;;;;;;13.97;79.24;101063.41;3318651;83;21246;-73
2022/10/26 14:34:24;;;;;;;16.80;8.55;;;;;;;13.81;79.25;101064.14;3347028;83;21574;-75
2022/10/26 14:39:42;;;;;;;10.90;8.45;;;;;;;13.67;79.57;101072.71;3330157;84;21067;-73
2022/10/26 14:44:31;;;;;;;11.53;9.75;;;;;;;13.49;79.69;101069.48;3301870;83;21047;-73
2022/10/26 14:49:26;;;;;;;10.25;7.40;;;;;;;13.27;79.94;101080.09;3345116;83;21162;-73
2022/10/26 14:55:38;;;;;;;;;;;;;;;;;;;;;
2022/10/26 15:00:25;;;;;;;16.07;8.85;;;;;;;12.87;80.12;101082.19;3244958;86;21093;-74
2022/10/26 15:05:24;;;;;;;11.38;8.38;;;;;;;12.59;80.44;101087.03;3219647;86;20989;-74
2022/10/26 15:10:39;;;;;;;11.88;8.03;;;;;;;12.37;80.52;101088.86;3241520;86;21539;-73
2022/10/26 15:15:31;;;;;;;9.95;8.15;;;;;;;12.16;80.59;101099.41;3188192;86;21660;-74
2022/10/26 15:20:25;;;;;;;7.35;6.58;;;;;;;11.97;80.68;101097.34;3164857;86;21025;-73
2022/10/26 15:25:21;;;;;;;11.70;8.05;;;;;;;11.90;81.38;101103.27;3236079;86;21204;-72
2022/10/26 15:30:23;;;;;;;11.70;8.00;;;;;;;11.80;81.47;101110.92;3169251;86;25705;-73
2022/10/26 15:35:28;;;;;;;16.73;8.48;;;;;;;11.74;81.93;101110.79;3184683;86;21075;-73
2022/10/26 15:40:19;;;;;;;10.28;8.20;;;;;;;11.69;82.23;101121.54;3249605;86;21034;-73
2022/10/26 15:45:24;;;;;;;9.60;8.15;;;;;;;11.56;82.14;101123.47;3232592;86;21058;-74
2022/10/26 15:50:20;;;;;;;13.35;9.55;;;;;;;11.40;82.17;101119.25;3191095;86;21591;-72
2022/10/26 15:55:11;;;;;;;10.03;7.10;;;;;;;11.22;82.14;101125.39;3273683;84;21013;-73
2022/10/26 16:00:06;;;;;;;15.43;7.28;;;;;;;11.05;82.01;101131.13;3271860;83;21072;-74
2022/10/26 16:04:57;;;;;;;12.70;6.72;;;;;;;10.88;81.82;101145.48;3308204;83;21457;-74
2022/10/26 16:09:48;;;;;;;13.95;8.53;;;;;;;10.72;82.09;101135.58;3294032;84;21398;-73
2022/10/26 16:14:43;;;;;;;8.60;6.05;;;;;;;10.58;82.36;101140.45;3320751;84;21499;-74
2022/10/26 16:19:35;;;;;;;7.90;7.10;;;;;;;10.46;82.05;101141.02;3270126;83;21031;-74
2022/10/26 16:24:41;;;;;;;;;;;;;;;;;;;;;
2022/10/26 16:29:25;;;;;;;9.88;6.65;;;;;;;10.13;81.41;101152.31;3269316;83;21299;-75
2022/10/26 16:34:34;;;;;;;;;;;;;;;;;;;;;
2022/10/26 16:44:17;;;;;;;9.80;7.37;;;;;;;9.82;81.74;101161.90;3295673;83;22176;-74
2022/10/26 16:49:25;;;;;;;;;;;;;;;;;;;;;
2022/10/26 16:54:14;;;;;;;15.00;8.43;;;;;;;9.64;82.31;101169.16;3292143;83;20970;-74
2022/10/26 16:59:37;;;;;;;19.57;11.48;;;;;;;9.56;82.45;101181.06;3283671;83;39356;-74
2022/10/26 17:10:03;;;;;;;14.98;11.60;;;;;;;9.37;82.19;101183.11;3330247;83;21164;-75
2022/10/26 17:15:02;;;;;;;15.55;11.18;;;;;;;9.26;82.57;101181.92;3270710;84;21555;-76
2022/10/26 17:19:55;;;;;;;13.98;9.55;;;;;;;9.18;82.51;101183.42;3248492;83;21461;-74
2022/10/26 17:24:46;;;;;;;17.65;9.03;;;;;;;9.08;82.32;101177.06;3310941;83;21906;-75
2022/10/26 17:29:38;;;;;;;10.53;8.23;;;;;;;8.97;82.27;101178.03;3275014;83;21860;-74
2022/10/26 17:34:29;;;;;;;18.52;9.35;;;;;;;8.88;81.99;101186.83;3299530;84;21511;-73
2022/10/26 17:39:20;;;;;;;13.05;10.38;;;;;;;8.77;82.26;101192.55;3247894;84;21027;-73
2022/10/26 17:44:11;;;;;;;14.40;11.93;;;;;;;8.69;82.17;101196.63;3290597;83;20966;-74
2022/10/26 17:49:03;;;;;;;11.53;9.20;;;;;;;8.59;82.32;101200.61;3261468;83;21085;-72
2022/10/26 17:53:54;;;;;;;13.83;11.10;;;;;;;8.52;81.88;101205.12;3272934;84;21591;-73
2022/10/26 17:58:55;;;;;;;15.03;11.70;;;;;;;8.44;82.26;101209.19;3295896;84;21078;-73
2022/10/26 18:03:48;;;;;;;15.10;12.20;;;;;;;8.36;82.03;101214.06;3295811;84;21040;-73
2022/10/26 18:08:40;;;;;;;14.28;12.20;;;;;;;8.25;82.23;101215.41;3327552;83;21007;-73
2022/10/26 18:13:33;;;;;;;13.43;11.55;;;;;;;8.19;82.13;101213.89;3317536;83;21052;-73
2022/10/26 18:18:24;;;;;;;13.68;11.40;;;;;;;8.14;82.35;101215.47;3297533;84;21484;-73
2022/10/26 18:23:15;;;;;;;14.15;11.43;;;;;;;8.04;82.33;101214.67;3267675;83;20967;-73
2022/10/26 18:28:06;;;;;;;16.17;11.28;;;;;;;7.96;82.05;101224.34;3267332;84;21426;-73
2022/10/26 18:32:57;;;;;;;16.62;12.53;;;;;;;7.82;82.20;101234.19;3283093;84;21129;-73
2022/10/26 18:37:48;;;;;;;13.22;11.22;;;;;;;7.82;82.20;101234.19;3325329;84;21144;-73
2022/10/26 18:42:39;;;;;;;16.73;13.65;;;;;;;7.70;82.39;101239.34;3327468;83;21005;-73
2022/10/26 18:47:32;;;;;;;19.80;13.10;;;;;;;7.70;82.39;101239.34;3281770;84;20983;-73
2022/10/26 18:52:28;;;;;;;12.03;10.20;;;;;;;7.62;82.41;101244.24;3321490;83;21312;-73
2022/10/26 18:57:25;;;;;;;11.55;10.43;;;;;;;7.56;82.06;101253.92;3298818;84;21008;-73
2022/10/26 19:02:14;;;;;;;12.55;11.28;;;;;;;7.50;82.30;101252.83;3157175;87;21070;-73
2022/10/26 19:07:05;;;;;;;11.70;9.80;;;;;;;7.45;82.34;101262.99;3183999;85;21031;-73
2022/10/26 19:11:57;;;;;;;11.08;9.33;;;;;;;7.42;82.15;101266.75;3266909;84;21437;-73
2022/10/26 19:16:52;;;;;;;10.68;9.68;;;;;;;7.38;82.26;101276.52;3258200;84;20971;-73
2022/10/26 19:21:48;;;;;;;11.40;9.30;;;;;;;7.37;82.58;101274.77;3292082;84;20998;-73
2022/10/26 19:26:40;;;;;;;12.93;10.57;;;;;;;7.37;82.40;101282.53;3283260;84;21199;-73
2022/10/26 19:31:34;;;;;;;12.45;8.55;;;;;;;7.36;82.50;101286.80;3303270;83;21449;-73
2022/10/26 19:36:26;;;;;;;18.45;10.50;;;;;;;7.33;82.27;101292.27;3296474;84;21022;-72
2022/10/26 19:41:21;;;;;;;20.72;14.33;;;;;;;7.26;82.30;101297.59;3316602;84;21137;-72
2022/10/26 19:46:16;;;;;;;26.52;17.42;;;;;;;7.19;82.46;101299.08;3315590;83;21398;-72
2022/10/26 19:51:08;;;;;;;26.10;18.00;;;;;;;7.18;82.81;101304.19;3299776;83;22653;-72
2022/10/26 19:56:01;;;;;;;27.67;17.80;;;;;;;7.17;82.95;101312.37;3269483;84;21062;-73
2022/10/26 20:01:01;;;;;;;26.25;18.05;;;;;;;7.15;82.79;101313.98;3291119;83;20970;-72
2022/10/26 20:05:56;;;;;;;32.53;22.48;;;;;;;7.14;82.84;101317.83;3316868;83;21594;-72
2022/10/26 20:10:47;;;;;;;30.65;21.33;;;;;;;7.16;83.04;101320.06;3332682;83;21112;-72
2022/10/26 20:15:40;;;;;;;29.87;21.27;;;;;;;7.20;83.26;101326.69;3310352;83;21196;-73
2022/10/26 20:20:36;;;;;;;32.63;22.35;;;;;;;7.23;83.39;101329.41;3356961;83;20987;-73
2022/10/26 20:25:27;;;;;;;29.37;22.02;;;;;;;7.34;83.46;101331.55;3296423;83;21017;-73
2022/10/26 20:30:19;;;;;;;28.62;23.38;;;;;;;7.39;83.45;101337.80;3277634;84;20983;-72
2022/10/26 20:35:10;;;;;;;26.55;22.27;;;;;;;7.43;83.49;101329.33;3293425;85;21074;-72
2022/10/26 20:40:02;;;;;;;31.75;24.02;;;;;;;7.55;83.74;101331.11;3296327;84;21186;-73
2022/10/26 20:45:17;;;;;;;30.68;22.82;;;;;;;7.55;83.74;101331.11;3293246;84;21024;-73
2022/10/26 20:50:13;;;;;;;32.35;25.48;;;;;;;7.59;83.89;101336.86;3325020;83;21014;-72
2022/10/26 20:55:32;;;;;;;33.88;25.55;;;;;;;7.59;83.70;101341.16;3265336;83;21050;-72
2022/10/26 21:00:23;;;;;;;;;;;;;;;7.57;83.82;101335.92;3322715;83;20950;-72
2022/10/26 21:05:17;;;;;;;36.75;26.42;;;;;;;7.57;83.92;101333.75;3278658;84;21054;-72
2022/10/26 21:10:09;;;;;;;34.45;24.95;;;;;;;7.54;84.17;101339.67;3297127;84;20996;-73
2022/10/26 21:15:01;;;;;;;41.88;27.10;;;;;;;7.47;83.79;101344.14;3286144;83;21095;-73
2022/10/26 21:19:56;;;;;;;57.55;32.33;;;;;;;7.42;83.99;101339.19;3252054;84;21041;-73
2022/10/26 21:24:47;;;;;;;47.70;34.25;;;;;;;7.37;84.25;101350.67;3281257;83;21579;-73
2022/10/26 21:29:39;;;;;;;41.45;30.97;;;;;;;7.30;84.43;101342.19;3270669;83;21826;-73
2022/10/26 21:34:30;;;;;;;85.75;39.33;;;;;;;7.30;84.43;101342.19;3297141;83;21501;-74
2022/10/26 21:39:21;;;;;;;62.90;33.48;;;;;;;7.33;84.69;101351.76;3254928;84;20998;-73
2022/10/26 21:44:13;;;;;;;56.40;35.00;;;;;;;7.25;85.12;101340.70;3294736;84;21013;-73
2022/10/26 21:49:05;;;;;;;55.88;36.35;;;;;;;7.25;85.12;101340.70;3331892;84;21644;-73
2022/10/26 21:53:57;;;;;;;44.33;32.65;;;;;;;7.27;84.46;101345.06;3317997;83;21544;-73
2022/10/26 21:58:48;;;;;;;50.35;36.05;;;;;;;7.15;84.19;101364.41;3320459;83;20965;-73
2022/10/26 22:03:40;;;;;;;70.67;41.58;;;;;;;7.05;84.27;101365.75;3290290;84;21038;-73
2022/10/26 22:08:32;;;;;;;67.95;40.43;;;;;;;7.01;84.47;101364.25;3266818;84;21072;-72
2022/10/26 22:13:24;;;;;;;56.33;38.17;;;;;;;6.95;84.36;101369.17;3296789;84;20935;-73
2022/10/26 22:18:16;;;;;;;62.15;42.17;;;;;;;6.93;84.83;101362.64;3290132;84;22476;-73
2022/10/26 22:23:07;;;;;;;52.78;35.08;;;;;;;6.95;84.84;101365.30;3271815;84;20944;-72
2022/10/26 22:27:59;;;;;;;57.58;35.88;;;;;;;6.93;84.57;101365.65;3274750;84;20948;-72
2022/10/26 22:32:50;;;;;;;47.67;33.05;;;;;;;6.87;84.52;101364.98;3290843;83;21489;-72
2022/10/26 22:37:44;;;;;;;50.80;33.08;;;;;;;6.84;84.58;101365.72;3271973;83;21018;-72
2022/10/26 22:42:36;;;;;;;51.68;31.82;;;;;;;6.83;84.65;101366.56;3309340;84;22402;-73
2022/10/26 22:47:28;;;;;;;50.50;32.75;;;;;;;6.81;84.62;101374.62;3271492;83;21082;-73
2022/10/26 22:52:29;;;;;;;46.90;33.70;;;;;;;6.73;84.48;101379.89;3264304;84;21098;-73
2022/10/26 22:57:14;;;;;;;56.10;33.25;;;;;;;6.71;84.62;101382.83;3291100;84;21093;-73
2022/10/26 23:02:05;;;;;;;44.50;29.87;;;;;;;6.68;84.64;101383.98;3288085;85;21072;-73
2022/10/26 23:06:56;;;;;;;41.42;30.90;;;;;;;6.58;84.33;101387.88;3244597;85;20994;-73
2022/10/26 23:11:47;;;;;;;39.63;31.35;;;;;;;6.51;84.54;101374.59;3274060;85;21575;-73
2022/10/26 23:16:38;;;;;;;40.38;29.52;;;;;;;6.51;84.61;101383.64;3242802;83;21022;-73
2022/10/26 23:21:30;;;;;;;46.13;29.30;;;;;;;6.49;84.77;101375.44;3295091;83;22130;-72
2022/10/26 23:26:21;;;;;;;44.20;31.87;;;;;;;6.47;84.79;101369.32;3291889;84;21035;-73
2022/10/26 23:31:25;;;;;;;42.00;29.35;;;;;;;6.47;84.69;101364.16;3300392;83;21846;-73
2022/10/26 23:36:17;;;;;;;40.98;28.80;;;;;;;6.48;84.82;101369.78;3325623;84;20982;-73
2022/10/26 23:41:09;;;;;;;48.63;28.62;;;;;;;6.45;84.76;101373.50;3287804;84;21481;-73
2022/10/26 23:46:00;;;;;;;39.45;28.32;;;;;;;6.47;85.10;101377.07;3276413;83;20966;-73
2022/10/26 23:50:52;;;;;;;41.95;30.17;;;;;;;6.48;85.34;101368.48;3281825;84;21508;-73
2022/10/26 23:55:44;;;;;;;43.00;28.45;;;;;;;6.53;85.39;101370.38;3295706;83;20998;-72
